Time;durP1;ratioP1;P1;durP2;ratioP2;P2;SDS_P1;SDS_P2;PMS_P1;PMS_P2;Temp;Humidity;BMP_temperature;BMP_pressure;BME280_temperature;BME280_humidity;BME280_pressure;Samples;Min_cycle;Max_cycle;Signal;HPM_P1;HPM_P2
2021/05/24 00:01:18;;;;;;;18.75;5.83;;;;;;;13.60;75.41;100976.55;1736766;82;20177;-62
2021/05/24 00:03:51;;;;;;;14.33;5.87;;;;;;;13.60;75.52;100976.55;1713414;83;21184;-62
2021/05/24 00:06:25;;;;;;;;;;;;;;;13.64;75.67;100980.08;1739190;81;21779;-64
2021/05/24 00:08:58;;;;;;;12.40;4.97;;;;;;;13.66;75.45;100982.08;1734916;82;20193;-64
2021/05/24 00:11:31;;;;;;;14.78;5.25;;;;;;;13.64;75.22;100977.92;1734220;82;21292;-63
2021/05/24 00:14:07;;;;;;;;;;;;;;;13.66;75.22;100976.82;1739093;82;21774;-64
2021/05/24 00:16:38;;;;;;;16.73;5.53;;;;;;;13.70;75.37;100976.08;1741606;81;20277;-64
2021/05/24 00:19:12;;;;;;;14.03;5.85;;;;;;;13.71;75.55;100974.61;1735388;82;21332;-64
2021/05/24 00:21:46;;;;;;;11.30;4.65;;;;;;;13.73;75.64;100977.92;1715272;83;21178;-64
2021/05/24 00:24:19;;;;;;;14.57;5.87;;;;;;;13.74;75.70;100979.60;1737167;81;21181;-63
2021/05/24 00:26:52;;;;;;;;;;;;;;;13.75;75.61;100973.38;1738975;82;21800;-64
2021/05/24 00:29:26;;;;;;;15.98;5.30;;;;;;;13.73;75.49;100986.33;1741938;81;20205;-63
2021/05/24 00:32:01;;;;;;;15.63;6.15;;;;;;;13.64;75.50;100981.39;1712822;83;21732;-63
2021/05/24 00:34:35;;;;;;;14.07;5.75;;;;;;;13.60;75.68;100984.44;1731384;82;21212;-64
2021/05/24 00:37:08;;;;;;;16.70;5.95;;;;;;;13.55;75.92;100988.80;1709052;83;21810;-64
2021/05/24 00:39:41;;;;;;;15.50;6.72;;;;;;;13.51;76.12;100986.11;1742013;82;21312;-63
2021/05/24 00:42:14;;;;;;;;;;;;;;;13.47;76.28;100980.75;1738945;82;21763;-63
2021/05/24 00:44:49;;;;;;;18.27;6.05;;;;;;;13.42;76.35;100973.28;1712082;82;20177;-62
2021/05/24 00:47:22;;;;;;;19.32;7.05;;;;;;;13.33;76.49;100974.09;1737737;81;21252;-62
2021/05/24 00:49:56;;;;;;;18.98;7.25;;;;;;;13.31;76.71;100981.77;1732483;82;21824;-62
2021/05/24 00:52:29;;;;;;;14.53;5.50;;;;;;;13.25;76.78;100982.34;1713238;83;21296;-63
2021/05/24 00:55:02;;;;;;;15.67;5.30;;;;;;;13.22;76.83;100990.48;1737000;81;21795;-62
2021/05/24 00:57:35;;;;;;;18.87;6.60;;;;;;;13.19;76.67;101001.27;1742105;82;21823;-62
2021/05/24 01:00:11;;;;;;;19.27;5.67;;;;;;;13.13;76.53;101006.59;1741890;81;21308;-62
2021/05/24 01:02:44;;;;;;;14.45;5.70;;;;;;;13.11;76.53;101019.52;1712954;83;21287;-62
2021/05/24 01:05:17;;;;;;;15.25;5.00;;;;;;;13.09;76.49;101013.06;1736935;82;21775;-62
2021/05/24 01:07:50;;;;;;;18.98;5.30;;;;;;;13.07;76.51;101006.27;1736966;82;21723;-63
2021/05/24 01:10:24;;;;;;;16.67;4.55;;;;;;;13.07;76.49;101017.63;1695777;83;21180;-62
2021/05/24 01:13:00;;;;;;;10.80;3.90;;;;;;;13.09;76.45;101020.11;1736740;82;21794;-62
2021/05/24 01:15:33;;;;;;;9.50;3.55;;;;;;;13.10;76.40;101005.55;1713853;83;21312;-62
2021/05/24 01:18:06;;;;;;;12.83;3.30;;;;;;;13.14;76.29;101002.14;1742433;82;21736;-62
2021/05/24 01:20:40;;;;;;;8.55;3.37;;;;;;;13.15;76.10;101005.97;1736662;81;21212;-62
2021/05/24 01:23:15;;;;;;;8.60;3.13;;;;;;;13.17;75.89;101004.04;1736878;81;21336;-62
2021/05/24 01:25:49;;;;;;;5.58;2.72;;;;;;;13.18;75.70;101002.25;1715001;83;22143;-62
2021/05/24 01:28:22;;;;;;;8.63;2.70;;;;;;;13.19;75.43;101003.42;1705155;83;21333;-62
2021/05/24 01:30:55;;;;;;;10.78;2.40;;;;;;;13.19;75.29;101006.05;1742122;81;21188;-62
2021/05/24 01:33:29;;;;;;;10.63;2.70;;;;;;;13.20;75.16;101005.09;1713101;83;21811;-62
2021/05/24 01:36:03;;;;;;;8.57;2.67;;;;;;;13.20;75.10;101006.41;1742349;81;21335;-62
2021/05/24 01:38:38;;;;;;;5.55;2.58;;;;;;;13.21;75.02;101011.16;1741853;81;21173;-62
2021/05/24 01:41:13;;;;;;;8.50;2.90;;;;;;;13.20;74.94;101009.52;1736635;82;21364;-62
2021/05/24 01:43:45;;;;;;;7.28;2.50;;;;;;;13.19;74.83;101028.39;1737751;81;21197;-63
2021/05/24 01:46:18;;;;;;;7.60;2.47;;;;;;;13.17;74.71;101025.07;1712203;83;21229;-63
2021/05/24 01:48:51;;;;;;;3.52;2.00;;;;;;;13.17;74.64;101032.96;1714088;83;21165;-63
2021/05/24 01:51:25;;;;;;;3.07;1.97;;;;;;;13.16;74.54;101020.77;1741953;81;21767;-63
2021/05/24 01:53:57;;;;;;;5.53;2.37;;;;;;;13.15;74.42;101016.97;1714535;83;21843;-63
2021/05/24 01:56:30;;;;;;;5.30;2.40;;;;;;;13.14;74.36;101023.17;1714756;83;22460;-63
2021/05/24 01:59:05;;;;;;;5.92;2.10;;;;;;;13.14;74.30;101029.27;1728829;82;21268;-63
2021/05/24 02:01:38;;;;;;;3.90;2.25;;;;;;;13.14;74.20;101019.23;1741840;82;21268;-62
2021/05/24 02:04:11;;;;;;;8.23;2.37;;;;;;;13.15;74.09;101006.45;1741975;81;21783;-63
2021/05/24 02:06:44;;;;;;;10.55;2.40;;;;;;;13.17;74.01;101009.77;1736723;81;21303;-63
2021/05/24 02:09:17;;;;;;;;;;;;;;;13.20;73.87;101006.41;1733920;82;21312;-63
2021/05/24 02:11:52;;;;;;;5.12;2.35;;;;;;;13.24;73.75;101009.58;1716970;82;20177;-63
2021/05/24 02:14:26;;;;;;;7.28;2.92;;;;;;;13.26;73.79;101016.84;1708516;83;21181;-63
2021/05/24 02:16:59;;;;;;;;;;;;;;;13.30;73.82;101020.89;1738744;82;21221;-63
2021/05/24 02:19:32;;;;;;;8.83;2.90;;;;;;;13.32;73.74;101027.69;1736514;81;20254;-63
2021/05/24 02:22:06;;;;;;;6.22;2.40;;;;;;;13.35;73.66;101026.58;1736755;82;21228;-63
2021/05/24 02:24:39;;;;;;;;;;;;;;;13.42;73.65;101040.34;1734096;81;21919;-63
2021/05/24 02:27:11;;;;;;;11.50;2.20;;;;;;;13.51;73.43;101042.67;1742019;82;20185;-63
2021/05/24 02:29:44;;;;;;;9.30;2.63;;;;;;;13.60;73.16;101043.64;1714047;83;21288;-63
2021/05/24 02:32:18;;;;;;;5.78;2.52;;;;;;;13.67;72.97;101046.91;1711810;83;21240;-63
2021/05/24 02:34:53;;;;;;;8.90;2.58;;;;;;;13.78;73.13;101048.09;1737496;81;21150;-64
2021/05/24 02:37:27;;;;;;;8.65;2.60;;;;;;;13.87;73.04;101048.60;1741963;81;21224;-66
2021/05/24 02:40:01;;;;;;;5.10;2.33;;;;;;;13.94;72.71;101050.19;1737635;81;21189;-64
2021/05/24 02:42:34;;;;;;;;;;;;;;;13.99;72.37;101058.03;1744318;82;21372;-65
2021/05/24 02:45:09;;;;;;;8.40;2.08;;;;;;;14.01;72.15;101062.67;1732748;81;20225;-65
2021/05/24 02:47:43;;;;;;;5.62;2.52;;;;;;;14.02;72.17;101059.52;1736642;81;21698;-65
2021/05/24 02:50:18;;;;;;;;;;;;;;;14.08;72.10;101054.55;1739173;81;21762;-65
2021/05/24 02:52:51;;;;;;;7.00;2.55;;;;;;;14.16;71.92;101059.94;1736993;82;20189;-64
2021/05/24 02:55:24;;;;;;;;;;;;;;;14.22;71.58;101063.83;1737135;82;21189;-65
2021/05/24 02:57:57;;;;;;;21.95;3.00;;;;;;;14.30;71.40;101069.72;1735017;82;20233;-64
2021/05/24 03:00:30;;;;;;;8.40;2.40;;;;;;;14.35;71.28;101062.27;1742124;82;21227;-65
2021/05/24 03:03:03;;;;;;;8.58;2.70;;;;;;;14.42;71.20;101060.25;1737058;82;21320;-65
2021/05/24 03:05:36;;;;;;;8.13;2.60;;;;;;;14.51;70.99;101062.03;1737386;81;21712;-64
2021/05/24 03:08:09;;;;;;;10.65;2.70;;;;;;;14.60;70.71;101068.23;1743438;81;21185;-65
2021/05/24 03:10:42;;;;;;;5.00;2.05;;;;;;;14.69;70.38;101068.70;1741857;81;21790;-64
2021/05/24 03:13:16;;;;;;;6.03;2.55;;;;;;;14.77;70.10;101073.61;1736880;82;21161;-64
2021/05/24 03:15:49;;;;;;;5.05;2.85;;;;;;;14.87;69.76;101085.45;1714780;83;21272;-66
2021/05/24 03:18:22;;;;;;;6.00;2.27;;;;;;;14.94;69.57;101094.45;1731962;82;21350;-65
2021/05/24 03:20:56;;;;;;;6.17;2.55;;;;;;;14.98;69.31;101085.74;1736738;81;21371;-63
2021/05/24 03:23:29;;;;;;;6.92;2.37;;;;;;;15.01;69.29;101082.83;1742276;82;21795;-64
2021/05/24 03:26:02;;;;;;;4.93;2.83;;;;;;;15.04;69.24;101093.94;1742130;82;21786;-63
2021/05/24 03:28:35;;;;;;;14.73;2.83;;;;;;;15.06;69.13;101103.01;1742171;82;21264;-64
2021/05/24 03:31:08;;;;;;;7.73;2.77;;;;;;;15.09;69.11;101100.92;1736851;81;21224;-64
2021/05/24 03:33:42;;;;;;;5.08;2.50;;;;;;;15.16;68.87;101107.77;1737919;82;21807;-64
2021/05/24 03:36:15;;;;;;;5.33;2.60;;;;;;;15.23;68.63;101110.16;1713622;83;21799;-61
2021/05/24 03:38:49;;;;;;;10.53;3.30;;;;;;;15.29;68.31;101122.28;1741778;81;21711;-61
2021/05/24 03:41:22;;;;;;;12.50;3.92;;;;;;;15.29;68.20;101123.59;1736851;82;21236;-61
2021/05/24 03:43:55;;;;;;;6.63;3.27;;;;;;;15.34;68.18;101126.63;1737057;81;21292;-61
2021/05/24 03:46:28;;;;;;;;;;;;;;;15.41;68.16;101121.59;1742789;81;22538;-61
2021/05/24 03:49:02;;;;;;;7.97;3.12;;;;;;;15.48;68.13;101122.70;1739498;82;20212;-61
2021/05/24 03:51:35;;;;;;;5.67;3.15;;;;;;;15.58;67.91;101131.41;1713066;83;21189;-63
2021/05/24 03:54:09;;;;;;;10.88;2.95;;;;;;;15.72;67.88;101135.36;1737664;82;21272;-61
2021/05/24 03:56:43;;;;;;;6.62;3.00;;;;;;;15.86;67.64;101139.65;1711291;83;21714;-60
2021/05/24 03:59:16;;;;;;;6.33;2.95;;;;;;;15.99;67.14;101137.49;1738753;82;21819;-61
2021/05/24 04:01:50;;;;;;;7.70;2.80;;;;;;;16.08;66.67;101131.30;1736602;82;21228;-62
2021/05/24 04:04:23;;;;;;;6.25;2.40;;;;;;;16.17;66.44;101127.75;1731880;82;21185;-61
2021/05/24 04:07:00;;;;;;;8.48;2.72;;;;;;;16.30;66.25;101124.74;1741531;82;21150;-60
2021/05/24 04:09:33;;;;;;;7.22;2.87;;;;;;;16.42;65.94;101129.30;1736397;82;21181;-61
2021/05/24 04:12:07;;;;;;;5.92;2.47;;;;;;;16.57;65.46;101126.49;1713262;83;21168;-61
2021/05/24 04:14:41;;;;;;;7.47;2.62;;;;;;;16.73;65.14;101119.99;1741779;81;21181;-61
2021/05/24 04:17:16;;;;;;;7.47;2.55;;;;;;;16.90;64.82;101129.70;1736571;82;21364;-60
2021/05/24 04:19:50;;;;;;;6.20;2.40;;;;;;;17.12;64.38;101127.02;1711105;83;21766;-60
2021/05/24 04:22:23;;;;;;;5.25;2.95;;;;;;;17.39;63.86;101136.08;1727001;82;21868;-60
2021/05/24 04:24:57;;;;;;;7.25;2.85;;;;;;;17.58;63.46;101134.53;1742059;81;21157;-61
2021/05/24 04:27:30;;;;;;;4.70;2.52;;;;;;;17.69;63.09;101132.94;1736870;82;21796;-60
2021/05/24 04:30:04;;;;;;;;;;;;;;;17.81;62.97;101138.27;1734830;81;21814;-60
2021/05/24 04:32:37;;;;;;;6.50;2.12;;;;;;;17.96;62.70;101135.31;1736970;82;20281;-60
2021/05/24 04:35:11;;;;;;;8.85;2.72;;;;;;;18.21;62.24;101144.14;1727199;82;21189;-61
2021/05/24 04:37:44;;;;;;;5.62;2.83;;;;;;;18.46;61.62;101142.39;1734764;82;21292;-60
2021/05/24 04:40:17;;;;;;;7.55;3.40;;;;;;;18.68;61.07;101137.23;1708738;82;21240;-60
2021/05/24 04:42:50;;;;;;;7.83;4.17;;;;;;;18.91;60.53;101128.59;1713834;82;21897;-61
2021/05/24 04:45:24;;;;;;;6.72;2.47;;;;;;;19.19;59.54;101133.82;1697367;82;21913;-61
2021/05/24 04:47:57;;;;;;;5.12;2.65;;;;;;;19.57;58.58;101137.03;1695957;82;21307;-61
2021/05/24 04:50:30;;;;;;;7.28;2.65;;;;;;;20.07;57.58;101140.58;1700053;83;21943;-61
2021/05/24 04:53:03;;;;;;;7.45;2.27;;;;;;;20.75;56.22;101139.26;1720521;81;21142;-61
2021/05/24 04:55:37;;;;;;;7.70;2.40;;;;;;;21.79;53.74;101139.91;1722104;81;21208;-64
2021/05/24 04:58:09;;;;;;;8.20;2.23;;;;;;;;;;1735183;80;21840;-61
2021/05/24 05:00:41;;;;;;;9.73;2.42;;;;;;;23.76;48.30;101138.35;1736019;80;21308;-60
2021/05/24 05:03:14;;;;;;;;;;;;;;;24.36;45.95;101144.16;1739035;80;21479;-60
2021/05/24 05:05:48;;;;;;;;;;;;;;;25.06;44.07;101153.44;1726417;80;20280;-59
2021/05/24 05:08:21;;;;;;;6.55;2.37;;;;;;;25.83;42.89;101148.07;1728212;81;20225;-62
2021/05/24 05:10:54;;;;;;;5.53;2.12;;;;;;;26.22;41.41;101147.06;1733223;80;21377;-62
2021/05/24 05:13:28;;;;;;;4.40;1.87;;;;;;;25.95;40.36;101160.61;1731907;80;21691;-59
2021/05/24 05:16:01;;;;;;;;;;;;;;;25.95;40.36;101160.61;1751459;80;21181;-62
2021/05/24 05:18:34;;;;;;;5.97;1.60;;;;;;;25.44;41.04;101151.73;1734820;80;20311;-64
2021/05/24 05:21:07;;;;;;;4.47;1.67;;;;;;;25.44;41.04;101151.73;1717868;80;21355;-63
2021/05/24 05:23:42;;;;;;;12.60;2.15;;;;;;;25.48;41.20;101151.64;1725264;81;21692;-60
2021/05/24 05:26:14;;;;;;;;;;;;;;;25.53;41.30;101143.75;1732266;80;21326;-62
2021/05/24 05:28:47;;;;;;;5.87;2.02;;;;;;;25.74;41.21;101153.38;1715425;81;20293;-60
2021/05/24 05:31:20;;;;;;;14.80;1.70;;;;;;;25.86;40.99;101155.19;1731974;80;21343;-61
2021/05/24 05:33:53;;;;;;;5.80;2.05;;;;;;;25.90;40.86;101151.55;1720302;81;21376;-67
2021/05/24 05:36:28;;;;;;;9.25;2.17;;;;;;;25.79;40.93;101154.41;1727658;80;21307;-61
2021/05/24 05:39:01;;;;;;;4.47;1.70;;;;;;;25.62;41.14;101157.77;1729367;80;21302;-58
2021/05/24 05:41:35;;;;;;;8.55;1.80;;;;;;;25.57;41.61;101153.55;1730689;81;21347;-58
2021/05/24 05:44:08;;;;;;;6.42;1.50;;;;;;;25.61;41.71;101153.42;1726597;81;21277;-59
2021/05/24 05:46:46;;;;;;;6.03;1.75;;;;;;;25.64;42.06;101153.84;1729572;80;21216;-59
2021/05/24 05:49:20;;;;;;;7.95;1.72;;;;;;;25.68;42.16;101158.23;1728953;80;21327;-60
2021/05/24 05:51:53;;;;;;;5.37;1.70;;;;;;;25.52;42.43;101162.75;1733250;80;21738;-61
2021/05/24 05:54:26;;;;;;;12.07;2.30;;;;;;;25.52;42.43;101162.75;1732882;80;21342;-58
2021/05/24 05:57:00;;;;;;;8.90;1.95;;;;;;;25.45;42.62;101154.73;1729718;81;21276;-63
2021/05/24 05:59:33;;;;;;;6.45;1.72;;;;;;;25.42;41.44;101159.97;1735069;80;21158;-59
2021/05/24 06:02:06;;;;;;;6.90;1.82;;;;;;;25.45;40.46;101165.45;1738077;80;21319;-59
2021/05/24 06:04:38;;;;;;;11.65;2.00;;;;;;;25.37;39.75;101167.81;1727040;81;21360;-59
2021/05/24 06:07:12;;;;;;;7.08;1.80;;;;;;;25.19;39.99;101170.34;1734203;80;21186;-60
2021/05/24 06:09:45;;;;;;;7.30;1.80;;;;;;;25.10;39.98;101174.25;1722258;80;21354;-62
2021/05/24 06:12:21;;;;;;;9.83;1.95;;;;;;;25.00;39.73;101172.53;1728510;81;21260;-62
2021/05/24 06:14:54;;;;;;;5.05;1.77;;;;;;;24.93;39.82;101162.85;1718961;80;21952;-59
2021/05/24 06:17:27;;;;;;;4.83;1.67;;;;;;;25.00;40.49;101171.20;1730223;81;21355;-58
2021/05/24 06:20:01;;;;;;;6.22;1.87;;;;;;;25.20;40.64;101168.45;1732144;80;21362;-58
2021/05/24 06:22:39;;;;;;;7.00;2.05;;;;;;;25.20;40.64;101168.45;1722573;80;21335;-60
2021/05/24 06:25:11;;;;;;;;;;;;;;;25.24;40.50;101172.39;1732174;80;21420;-58
2021/05/24 06:27:44;;;;;;;9.63;1.60;;;;;;;25.18;40.29;101175.89;1739368;80;20269;-59
2021/05/24 06:30:18;;;;;;;6.95;1.67;;;;;;;25.01;40.96;101176.02;1738766;80;21339;-60
2021/05/24 06:32:52;;;;;;;6.42;1.62;;;;;;;24.90;41.04;101177.48;1718953;81;21287;-61
2021/05/24 06:35:25;;;;;;;14.45;1.95;;;;;;;24.88;41.41;101184.08;1727214;80;21303;-59
2021/05/24 06:37:58;;;;;;;6.75;1.87;;;;;;;24.98;41.72;101185.28;1737089;80;21373;-63
2021/05/24 06:40:31;;;;;;;4.10;1.90;;;;;;;25.12;41.44;101187.45;1720843;81;21307;-61
2021/05/24 06:43:04;;;;;;;9.55;1.80;;;;;;;25.28;41.44;101185.67;1731984;81;21826;-61
2021/05/24 06:45:38;;;;;;;10.90;1.90;;;;;;;25.42;41.79;101176.56;1731836;80;21216;-58
2021/05/24 06:48:11;;;;;;;7.58;1.77;;;;;;;25.57;41.68;101179.02;1731585;80;21324;-60
2021/05/24 06:50:44;;;;;;;5.45;2.10;;;;;;;25.68;40.91;101179.70;1722253;80;21906;-59
2021/05/24 06:53:17;;;;;;;6.72;1.87;;;;;;;25.70;40.76;101183.81;1723794;80;21330;-59
2021/05/24 06:55:49;;;;;;;;;;;;;;;25.70;40.74;101179.80;1725878;81;21354;-61
2021/05/24 06:58:22;;;;;;;4.08;1.67;;;;;;;25.72;40.46;101186.30;1729671;80;20697;-59
2021/05/24 07:00:56;;;;;;;3.30;1.60;;;;;;;25.74;40.35;101186.40;1729981;80;21341;-62
2021/05/24 07:03:29;;;;;;;6.47;1.67;;;;;;;25.79;39.94;101181.73;1730719;81;22498;-59
2021/05/24 07:06:02;;;;;;;7.12;1.60;;;;;;;25.75;40.38;101178.64;1732668;81;21319;-58
2021/05/24 07:08:37;;;;;;;5.85;1.40;;;;;;;25.77;40.38;101187.29;1736122;80;21677;-61
2021/05/24 07:11:10;;;;;;;6.05;1.67;;;;;;;25.89;40.61;101189.61;1731233;80;21284;-58
2021/05/24 07:13:43;;;;;;;4.70;1.70;;;;;;;25.94;39.80;101184.44;1726219;80;21181;-57
2021/05/24 07:16:16;;;;;;;3.55;1.67;;;;;;;25.94;39.80;101176.38;1734713;81;21289;-63
2021/05/24 07:18:50;;;;;;;3.80;1.55;;;;;;;25.92;40.28;101177.63;1734546;80;21881;-60
2021/05/24 07:21:24;;;;;;;5.58;1.60;;;;;;;25.85;40.92;101181.70;1739277;80;21835;-59
2021/05/24 07:23:57;;;;;;;3.15;1.60;;;;;;;25.77;40.88;101175.22;1728039;80;21287;-61
2021/05/24 07:26:30;;;;;;;5.50;1.60;;;;;;;25.72;40.90;101166.98;1727325;81;21637;-62
2021/05/24 07:29:04;;;;;;;5.65;1.47;;;;;;;25.61;41.34;101169.00;1725932;81;21340;-59
2021/05/24 07:31:37;;;;;;;9.03;4.30;;;;;;;25.52;42.00;101166.26;1736033;81;21312;-61
2021/05/24 07:34:10;;;;;;;3.20;1.40;;;;;;;25.44;41.08;101163.80;1728861;80;22340;-63
2021/05/24 07:36:43;;;;;;;7.62;2.20;;;;;;;25.36;40.50;101164.02;1729631;81;21389;-61
2021/05/24 07:39:16;;;;;;;4.15;1.42;;;;;;;25.25;40.64;101167.31;1724033;81;21326;-61
2021/05/24 07:41:49;;;;;;;11.80;1.80;;;;;;;25.18;40.48;101167.85;1736261;81;21785;-60
2021/05/24 07:44:24;;;;;;;9.95;3.00;;;;;;;25.12;40.73;101164.17;1729232;81;21219;-65
2021/05/24 07:46:57;;;;;;;;;;;;;;;25.08;40.74;101162.92;1730103;81;21377;-67
2021/05/24 07:49:30;;;;;;;8.48;1.55;;;;;;;25.03;40.09;101160.58;1731773;80;20287;-59
2021/05/24 07:52:04;;;;;;;3.50;1.25;;;;;;;24.95;40.27;101162.13;1725814;80;21184;-61
2021/05/24 07:54:38;;;;;;;3.10;1.60;;;;;;;24.98;40.37;101164.39;1736923;81;21209;-63
2021/05/24 07:57:11;;;;;;;9.25;1.95;;;;;;;24.97;40.60;101167.58;1726242;82;21187;-59
2021/05/24 07:59:45;;;;;;;4.28;1.32;;;;;;;25.00;39.57;101171.70;1730745;80;21339;-59
2021/05/24 08:02:19;;;;;;;4.53;1.30;;;;;;;25.07;39.05;101173.86;1733721;81;21672;-62
2021/05/24 08:04:53;;;;;;;16.50;1.47;;;;;;;25.22;38.84;101173.92;1675583;81;21246;-60
2021/05/24 08:07:28;;;;;;;7.53;1.77;;;;;;;25.37;38.92;101162.45;1733869;81;21141;-59
2021/05/24 08:10:01;;;;;;;3.60;1.15;;;;;;;25.51;38.63;101167.81;1721900;80;21653;-62
2021/05/24 08:13:11;;;;;;;3.10;1.10;;;;;;;25.64;38.53;101180.66;1724800;80;21326;-62
2021/05/24 08:15:44;;;;;;;1.42;1.00;;;;;;;25.90;38.12;101179.20;1726842;80;21310;-62
2021/05/24 08:18:18;;;;;;;6.30;1.37;;;;;;;26.12;37.23;101177.06;1725841;81;21173;-61
2021/05/24 08:20:51;;;;;;;5.30;1.67;;;;;;;26.29;37.48;101170.66;1724976;81;21350;-65
2021/05/24 08:23:24;;;;;;;2.55;1.52;;;;;;;26.39;36.64;101166.44;1727655;80;21338;-60
2021/05/24 08:25:57;;;;;;;3.62;1.40;;;;;;;26.49;36.10;101170.81;1722719;81;21303;-61
2021/05/24 08:28:30;;;;;;;4.67;1.60;;;;;;;26.61;35.92;101168.23;1737055;81;21280;-66
2021/05/24 08:31:03;;;;;;;3.52;1.30;;;;;;;26.70;35.40;101167.75;1731869;80;21316;-61
2021/05/24 08:33:36;;;;;;;4.75;1.35;;;;;;;26.76;35.71;101167.43;1722085;80;21350;-64
2021/05/24 08:36:11;;;;;;;6.50;1.30;;;;;;;26.70;35.60;101157.55;1728186;81;21217;-62
2021/05/24 08:38:46;;;;;;;4.50;1.62;;;;;;;26.67;35.17;101155.30;1729974;81;21299;-65
2021/05/24 08:41:19;;;;;;;9.63;1.67;;;;;;;26.67;35.17;101155.30;1728932;81;21372;-68
2021/05/24 08:43:52;;;;;;;3.10;1.42;;;;;;;26.63;34.21;101155.41;1698395;83;21280;-65
2021/05/24 08:46:26;;;;;;;4.35;1.37;;;;;;;26.59;34.52;101151.53;1689129;82;21288;-68
2021/05/24 08:48:59;;;;;;;2.83;1.30;;;;;;;26.68;34.50;101149.69;1689628;83;21340;-65
2021/05/24 08:51:32;;;;;;;4.20;1.40;;;;;;;26.79;33.97;101143.34;1722324;81;21346;-65
2021/05/24 08:54:07;;;;;;;5.80;1.80;;;;;;;26.85;33.91;101140.58;1731043;81;21213;-63
2021/05/24 08:56:40;;;;;;;2.25;1.17;;;;;;;26.82;33.32;101140.22;1731093;81;21275;-64
2021/05/24 08:59:13;;;;;;;2.10;1.00;;;;;;;26.80;32.23;101139.08;1729710;80;21239;-63
2021/05/24 09:01:46;;;;;;;2.12;0.90;;;;;;;26.79;31.54;101137.45;1736443;80;22015;-63
2021/05/24 09:04:19;;;;;;;11.22;1.75;;;;;;;26.77;31.17;101144.91;1726162;81;21319;-61
2021/05/24 09:06:53;;;;;;;3.27;1.15;;;;;;;26.79;30.67;101133.42;1730061;81;21870;-62
2021/05/24 09:09:27;;;;;;;7.60;1.05;;;;;;;26.81;30.46;101142.59;1710658;80;21307;-65
2021/05/24 09:12:02;;;;;;;3.92;0.90;;;;;;;26.82;29.84;101135.64;1721449;81;22386;-63
2021/05/24 09:14:35;;;;;;;2.20;0.90;;;;;;;26.79;29.18;101135.27;1726571;81;21779;-65
2021/05/24 09:17:09;;;;;;;2.25;1.12;;;;;;;26.73;30.17;101141.80;1725408;81;21248;-69
2021/05/24 09:19:42;;;;;;;2.87;0.90;;;;;;;26.63;30.30;101136.61;1736599;81;21303;-61
2021/05/24 09:22:15;;;;;;;1.80;0.70;;;;;;;26.54;29.91;101136.59;1722562;81;21217;-62
2021/05/24 09:24:50;;;;;;;2.58;0.80;;;;;;;26.58;30.79;101119.81;1731730;80;21247;-64
2021/05/24 09:27:33;;;;;;;3.67;0.88;;;;;;;26.58;30.79;101119.81;1702596;81;21702;-63
2021/05/24 09:30:05;;;;;;;2.17;0.95;;;;;;;26.67;30.26;101127.92;1728145;81;21371;-66
2021/05/24 09:32:38;;;;;;;10.35;1.87;;;;;;;26.70;30.53;101120.73;1724025;81;21303;-64
2021/05/24 09:35:12;;;;;;;5.95;1.35;;;;;;;26.73;30.24;101114.11;1718491;82;21216;-61
2021/05/24 09:37:46;;;;;;;4.08;1.02;;;;;;;26.71;30.37;101110.82;1727097;81;21208;-62
2021/05/24 09:40:26;;;;;;;31.40;2.72;;;;;;;26.71;30.28;101112.99;1685010;82;21256;-61
2021/05/24 09:43:09;;;;;;;3.58;1.00;;;;;;;26.72;30.66;101109.80;1722110;81;21344;-64
2021/05/24 09:45:42;;;;;;;3.90;1.07;;;;;;;26.68;30.02;101105.38;1732658;81;21827;-63
2021/05/24 09:48:16;;;;;;;;;;;;;;;26.61;30.55;101103.27;1731126;80;21797;-64
2021/05/24 09:50:55;;;;;;;5.20;1.17;;;;;;;26.55;31.07;101106.02;1732744;81;20324;-61
2021/05/24 09:53:28;;;;;;;21.17;1.72;;;;;;;26.32;31.61;101104.45;1736595;80;21288;-63
2021/05/24 09:56:13;;;;;;;3.42;1.00;;;;;;;26.32;31.61;101104.45;1727528;80;21196;-62
2021/05/24 09:58:49;;;;;;;2.52;1.00;;;;;;;26.22;31.08;101103.60;1718513;81;21350;-61
2021/05/24 10:01:29;;;;;;;4.50;1.12;;;;;;;26.02;31.32;101102.88;1707074;81;21342;-61
2021/05/24 10:04:01;;;;;;;3.92;1.22;;;;;;;25.87;31.77;101094.28;1735010;80;21318;-61
2021/05/24 10:06:35;;;;;;;4.75;1.20;;;;;;;25.76;32.10;101087.77;1724321;80;21779;-61
2021/05/24 10:09:10;;;;;;;;;;;;;;;25.74;32.71;101082.30;1729619;80;21303;-62
2021/05/24 10:11:45;;;;;;;3.52;1.05;;;;;;;25.73;32.41;101079.30;1722958;81;20241;-62
2021/05/24 10:14:22;;;;;;;2.45;1.02;;;;;;;25.65;32.97;101075.55;1724216;81;21311;-63
2021/05/24 10:17:05;;;;;;;11.20;1.07;;;;;;;25.65;32.97;101075.55;1724284;80;21192;-62
2021/05/24 10:19:33;;;;;;;2.02;0.80;;;;;;;25.65;32.83;101067.51;1724617;80;21712;-59
2021/05/24 10:22:07;;;;;;;2.75;0.82;;;;;;;25.66;32.82;101064.60;1741459;80;21208;-64
2021/05/24 10:24:40;;;;;;;9.68;1.35;;;;;;;25.67;32.65;101059.55;1692297;82;21299;-66
2021/05/24 10:27:14;;;;;;;2.40;0.90;;;;;;;25.70;32.95;101060.98;1709843;81;21318;-65
2021/05/24 10:29:46;;;;;;;8.75;1.45;;;;;;;25.69;32.52;101057.98;1726103;80;21287;-63
2021/05/24 10:32:23;;;;;;;3.58;1.30;;;;;;;25.62;33.08;101050.50;1732333;80;21199;-62
2021/05/24 10:34:59;;;;;;;2.62;1.00;;;;;;;25.53;33.64;101049.91;1725635;81;21251;-61
2021/05/24 10:37:31;;;;;;;2.92;1.12;;;;;;;25.42;33.14;101054.08;1729744;80;21303;-60
2021/05/24 10:40:06;;;;;;;5.60;1.20;;;;;;;25.34;33.42;101048.11;1674731;82;21287;-63
2021/05/24 10:42:42;;;;;;;3.58;1.42;;;;;;;25.27;33.64;101048.15;1722713;81;22355;-61
2021/05/24 10:45:23;;;;;;;3.05;1.00;;;;;;;25.23;34.09;101040.24;1735689;81;21274;-64
2021/05/24 10:48:02;;;;;;;1.72;0.80;;;;;;;25.19;34.44;101032.84;1736364;80;21909;-66
2021/05/24 10:50:35;;;;;;;20.25;2.98;;;;;;;25.11;34.79;101033.89;1734834;80;21355;-64
2021/05/24 10:53:16;;;;;;;5.65;1.32;;;;;;;25.01;34.71;101041.55;1727423;80;21188;-59
2021/05/24 10:55:53;;;;;;;6.03;1.20;;;;;;;24.94;34.96;101043.94;1739443;80;21221;-58
2021/05/24 10:58:29;;;;;;;2.47;1.10;;;;;;;24.90;35.18;101043.55;1721928;81;21334;-63
2021/05/24 11:01:05;;;;;;;12.93;1.72;;;;;;;24.87;35.24;101044.47;1735666;80;21850;-60
2021/05/24 11:03:44;;;;;;;9.13;1.20;;;;;;;24.85;35.89;101038.00;1724759;81;21331;-59
2021/05/24 11:06:18;;;;;;;2.58;0.95;;;;;;;24.84;35.88;101043.03;1731569;81;21216;-60
2021/05/24 11:09:07;;;;;;;2.15;0.90;;;;;;;24.81;36.13;101036.78;1724825;80;21201;-60
2021/05/24 11:11:41;;;;;;;8.58;1.45;;;;;;;24.76;36.50;101031.20;1726471;80;21185;-60
2021/05/24 11:14:14;;;;;;;5.47;1.42;;;;;;;24.70;36.88;101035.52;1726084;80;22164;-63
2021/05/24 11:16:53;;;;;;;6.20;1.35;;;;;;;24.68;36.74;101035.42;1739439;81;21572;-64
2021/05/24 11:19:28;;;;;;;6.28;1.40;;;;;;;24.69;36.37;101029.05;1732889;81;21248;-64
2021/05/24 11:22:31;;;;;;;3.05;1.27;;;;;;;24.73;36.46;101027.08;1724612;81;21354;-66
2021/05/24 11:28:15;;;;;;;2.33;1.10;;;;;;;24.79;36.78;101013.37;1642160;83;21708;-67
2021/05/24 11:31:11;;;;;;;8.18;5.92;;;;;;;24.80;36.78;101012.87;1714033;81;21292;-65
2021/05/24 11:33:53;;;;;;;3.50;1.77;;;;;;;24.85;37.21;101014.41;1716309;80;21291;-62
2021/05/24 11:36:42;;;;;;;5.22;2.70;;;;;;;24.89;37.03;101008.92;1739162;80;21280;-63
2021/05/24 11:39:36;;;;;;;8.88;4.30;;;;;;;24.94;37.04;101011.80;1717684;80;21207;-67
2021/05/24 11:42:11;;;;;;;10.70;2.85;;;;;;;24.98;37.31;101002.33;1734073;81;22395;-64
2021/05/24 11:44:46;;;;;;;11.33;2.90;;;;;;;25.03;36.86;101005.19;1726738;81;21815;-64
2021/05/24 11:47:24;;;;;;;6.08;2.40;;;;;;;25.07;36.48;101006.41;1724647;81;21220;-65
2021/05/24 11:50:02;;;;;;;7.20;2.00;;;;;;;25.11;35.96;101002.25;1723196;80;22005;-65
2021/05/24 11:52:38;;;;;;;7.67;2.52;;;;;;;25.16;36.31;101007.80;1737649;81;21537;-66
2021/05/24 11:55:14;;;;;;;5.22;0.90;;;;;;;25.21;36.19;101003.97;1722466;81;21939;-66
2021/05/24 11:57:48;;;;;;;3.08;1.20;;;;;;;25.28;35.56;100998.89;1731754;80;21291;-66
2021/05/24 12:00:24;;;;;;;4.45;1.42;;;;;;;25.33;35.93;100997.73;1730817;80;21197;-63
2021/05/24 12:03:00;;;;;;;2.60;1.62;;;;;;;25.42;36.16;100997.78;1718676;80;21161;-65
2021/05/24 12:05:34;;;;;;;12.63;2.12;;;;;;;25.52;35.99;100983.94;1729272;80;21227;-65